Time;durP1;ratioP1;P1;durP2;ratioP2;P2;SDS_P1;SDS_P2;PMS_P1;PMS_P2;Temp;Humidity;BMP_temperature;BMP_pressure;BME280_temperature;BME280_humidity;BME280_pressure;Samples;Min_cycle;Max_cycle;Signal;HPM_P1;HPM_P2
2022/09/14 00:01:12;;;;;;;8.25;3.50;;;;;;;15.86;93.67;100788.09;5063586;28;20456;-58
2022/09/14 00:03:38;;;;;;;9.43;3.78;;;;;;;15.81;93.34;100785.19;5064205;28;20029;-59
2022/09/14 00:06:10;;;;;;;10.45;3.63;;;;;;;15.68;94.79;100777.91;5064610;28;20037;-59
2022/09/14 00:08:36;;;;;;;14.43;4.20;;;;;;;15.61;94.45;100769.88;5073782;28;20032;-58
2022/09/14 00:11:07;;;;;;;11.05;3.58;;;;;;;15.55;95.63;100765.31;5069819;28;20032;-59
2022/09/14 00:13:34;;;;;;;7.18;3.53;;;;;;;15.58;93.78;100759.56;5077159;28;20111;-58
2022/09/14 00:16:04;;;;;;;10.57;3.47;;;;;;;15.57;93.55;100757.91;5078634;28;20024;-55
2022/09/14 00:18:30;;;;;;;10.32;3.40;;;;;;;15.42;93.43;100766.03;5074353;28;20483;-56
2022/09/14 00:21:04;;;;;;;10.38;3.30;;;;;;;15.50;94.33;100751.69;5072963;28;20090;-60
2022/09/14 00:23:29;;;;;;;11.27;3.92;;;;;;;15.60;91.93;100760.19;5073030;28;20040;-58
2022/09/14 00:25:55;;;;;;;12.52;3.50;;;;;;;15.45;92.63;100766.47;5067970;28;20029;-57
2022/09/14 00:28:20;;;;;;;11.02;3.50;;;;;;;15.47;94.15;100763.59;5071488;28;20111;-57
2022/09/14 00:30:46;;;;;;;13.93;3.90;;;;;;;15.59;94.35;100764.72;5078958;28;20376;-57
2022/09/14 00:33:12;;;;;;;11.70;3.85;;;;;;;15.54;93.11;100759.13;5074778;28;20469;-60
2022/09/14 00:35:37;;;;;;;13.30;3.70;;;;;;;15.44;95.18;100759.47;5071023;28;20032;-57
2022/09/14 00:38:02;;;;;;;9.55;3.85;;;;;;;15.46;94.39;100754.75;5069221;28;20040;-59
2022/09/14 00:40:28;;;;;;;11.57;3.60;;;;;;;15.45;93.98;100747.75;5071584;28;20032;-57
2022/09/14 00:42:54;;;;;;;10.27;3.83;;;;;;;15.43;95.00;100747.13;5082173;28;20058;-59
2022/09/14 00:45:21;;;;;;;10.80;3.40;;;;;;;15.48;93.66;100740.38;5086905;28;20028;-56
2022/09/14 00:47:49;;;;;;;12.35;3.67;;;;;;;15.48;94.79;100743.06;5077354;28;20060;-57
2022/09/14 00:50:16;;;;;;;12.68;4.00;;;;;;;15.54;95.24;100742.28;5070222;28;20535;-56
2022/09/14 00:52:44;;;;;;;8.95;3.40;;;;;;;15.52;93.42;100733.59;5082804;28;20024;-57
2022/09/14 00:55:14;;;;;;;9.23;3.80;;;;;;;15.46;94.67;100724.53;5080101;28;20064;-56
2022/09/14 00:57:43;;;;;;;6.88;3.63;;;;;;;15.44;95.31;100722.06;5068006;28;20484;-56
2022/09/14 01:00:11;;;;;;;12.05;4.07;;;;;;;15.56;96.35;100721.50;5067584;28;20400;-56
2022/09/14 01:02:37;;;;;;;8.55;3.58;;;;;;;15.57;95.40;100715.97;5071807;28;20325;-56
2022/09/14 01:05:03;;;;;;;12.18;3.60;;;;;;;15.49;96.18;100713.44;5079840;28;20118;-56
2022/09/14 01:07:39;;;;;;;8.02;3.50;;;;;;;15.56;95.84;100700.13;5085357;28;20577;-57
2022/09/14 01:10:15;;;;;;;8.75;3.70;;;;;;;15.60;97.07;100704.06;5081509;28;20032;-57
2022/09/14 01:12:56;;;;;;;6.95;3.63;;;;;;;15.55;95.76;100701.16;5084222;28;20028;-58
2022/09/14 01:15:28;;;;;;;11.27;4.13;;;;;;;15.44;96.35;100695.34;5066848;28;20032;-57
2022/09/14 01:18:15;;;;;;;9.88;4.25;;;;;;;15.46;96.43;100698.63;5078843;28;20040;-58
2022/09/14 01:20:54;;;;;;;10.20;4.13;;;;;;;15.38;96.79;100685.44;5079525;28;20055;-56
2022/09/14 01:23:58;;;;;;;7.57;3.70;;;;;;;15.45;96.17;100685.50;5070126;28;20040;-57
2022/09/14 01:26:57;;;;;;;11.65;4.22;;;;;;;15.46;96.20;100703.97;5067333;28;20509;-57
2022/09/14 01:29:32;;;;;;;11.15;3.53;;;;;;;15.42;96.84;100696.56;5066915;28;20487;-58
2022/09/14 01:32:03;;;;;;;11.57;4.00;;;;;;;15.31;95.64;100700.63;5073346;28;20051;-57
2022/09/14 01:34:44;;;;;;;11.40;3.63;;;;;;;15.39;96.20;100703.13;5070630;28;20024;-57
2022/09/14 01:37:17;;;;;;;11.73;3.47;;;;;;;15.26;95.16;100700.38;5084765;28;20176;-57
2022/09/14 01:39:49;;;;;;;11.32;3.85;;;;;;;15.19;95.50;100703.84;5074979;28;20044;-57
2022/09/14 01:42:17;;;;;;;10.90;3.60;;;;;;;15.27;97.39;100696.69;5080068;28;20036;-56
2022/09/14 01:44:48;;;;;;;9.52;3.50;;;;;;;15.22;94.48;100696.44;5071336;28;20071;-58
2022/09/14 01:47:30;;;;;;;8.57;3.20;;;;;;;15.30;94.83;100693.63;5084534;28;20039;-57
2022/09/14 01:50:02;;;;;;;10.70;3.47;;;;;;;15.18;94.14;100679.97;5084005;28;20028;-56
2022/09/14 01:52:38;;;;;;;8.23;3.20;;;;;;;15.32;95.16;100686.25;5075999;28;20036;-58
2022/09/14 01:55:14;;;;;;;12.85;3.63;;;;;;;15.25;95.20;100690.72;5075594;28;20935;-56
2022/09/14 01:58:13;;;;;;;12.38;3.65;;;;;;;15.33;93.80;100687.88;5073168;28;20034;-57
2022/09/14 02:00:44;;;;;;;8.73;3.47;;;;;;;15.27;94.39;100680.66;5052756;28;20037;-56
2022/09/14 02:03:17;;;;;;;11.63;3.70;;;;;;;15.14;92.96;100679.56;5053382;28;20024;-57
2022/09/14 02:05:58;;;;;;;10.73;3.70;;;;;;;15.18;93.43;100678.16;5068781;28;20433;-56
2022/09/14 02:08:26;;;;;;;6.47;3.25;;;;;;;14.97;92.44;100672.88;5066862;28;20036;-56
2022/09/14 02:10:52;;;;;;;9.90;3.30;;;;;;;14.86;93.49;100676.91;5071215;28;20054;-56
2022/09/14 02:13:17;;;;;;;10.15;3.42;;;;;;;15.00;95.26;100677.84;5064860;28;20499;-56
2022/09/14 02:15:43;;;;;;;8.77;3.35;;;;;;;15.01;93.47;100684.81;5066488;28;20036;-58
2022/09/14 02:18:08;;;;;;;10.68;3.75;;;;;;;14.96;94.47;100684.56;5080877;28;20036;-57
2022/09/14 02:20:47;;;;;;;10.00;3.60;;;;;;;15.04;95.22;100679.06;5073329;28;20039;-57
2022/09/14 02:23:12;;;;;;;8.65;3.55;;;;;;;14.93;95.60;100681.28;5077533;28;20028;-59
2022/09/14 02:25:39;;;;;;;8.90;3.30;;;;;;;14.90;93.01;100678.19;5069711;28;20039;-58
2022/09/14 02:28:05;;;;;;;10.95;3.47;;;;;;;14.77;93.53;100684.22;5074005;28;20036;-57
2022/09/14 02:30:47;;;;;;;10.93;3.47;;;;;;;14.77;94.09;100676.22;5068169;28;20032;-56
2022/09/14 02:33:32;;;;;;;10.25;3.78;;;;;;;14.77;95.40;100681.56;5068227;28;20579;-56
2022/09/14 02:36:06;;;;;;;9.32;3.55;;;;;;;14.77;94.13;100678.88;5078418;28;20044;-56
2022/09/14 02:38:31;;;;;;;7.28;3.38;;;;;;;14.77;95.15;100684.22;5082314;28;20594;-58
2022/09/14 02:41:21;;;;;;;8.40;3.60;;;;;;;14.89;96.09;100690.69;5075938;28;20132;-57
2022/09/14 02:43:58;;;;;;;8.48;3.72;;;;;;;14.84;96.18;100684.28;5057752;28;20518;-59
2022/09/14 02:46:42;;;;;;;9.27;3.60;;;;;;;14.96;96.07;100687.25;5071173;28;20040;-57
2022/09/14 02:49:31;;;;;;;9.77;3.72;;;;;;;14.97;95.96;100683.53;5074014;28;20073;-57
2022/09/14 02:52:17;;;;;;;7.78;3.53;;;;;;;14.95;96.69;100685.59;5080725;28;20032;-55
2022/09/14 02:54:51;;;;;;;9.88;3.70;;;;;;;14.80;96.08;100675.81;5074580;28;20040;-58
2022/09/14 02:57:17;;;;;;;9.00;3.60;;;;;;;14.89;95.72;100671.16;5077327;28;20027;-55
2022/09/14 02:59:42;;;;;;;13.32;3.58;;;;;;;14.78;95.52;100667.19;5072958;28;20352;-58
2022/09/14 03:02:07;;;;;;;8.38;3.55;;;;;;;14.69;94.81;100665.66;5067159;28;20079;-57
2022/09/14 03:04:33;;;;;;;7.68;3.47;;;;;;;14.72;96.25;100665.25;5072202;28;20081;-57
2022/09/14 03:06:58;;;;;;;10.30;3.58;;;;;;;14.66;96.09;100665.00;5071014;28;20028;-55
2022/09/14 03:09:23;;;;;;;9.82;3.70;;;;;;;14.69;95.48;100660.31;5082191;28;20047;-55
2022/09/14 03:11:48;;;;;;;11.57;3.60;;;;;;;14.66;96.36;100657.00;5070948;28;20494;-57
2022/09/14 03:14:14;;;;;;;13.60;3.63;;;;;;;14.66;96.05;100657.00;5081364;28;20078;-57
2022/09/14 03:16:39;;;;;;;11.93;3.72;;;;;;;14.69;96.59;100649.66;5077985;28;20039;-56
2022/09/14 03:19:05;;;;;;;7.57;3.80;;;;;;;14.71;97.20;100642.25;5066899;28;20039;-56
2022/09/14 03:21:31;;;;;;;11.77;3.70;;;;;;;14.59;96.22;100648.13;5075287;28;20046;-58
2022/09/14 03:23:57;;;;;;;8.32;3.35;;;;;;;14.59;96.05;100650.78;5070138;28;20062;-59
2022/09/14 03:26:24;;;;;;;11.85;3.65;;;;;;;14.54;95.89;100647.88;5067233;28;20494;-59
2022/09/14 03:28:51;;;;;;;8.05;3.40;;;;;;;14.51;96.15;100653.63;5046826;28;20029;-57
2022/09/14 03:31:17;;;;;;;13.75;3.65;;;;;;;14.45;96.37;100649.84;5074646;28;20032;-56
2022/09/14 03:33:42;;;;;;;6.60;3.17;;;;;;;14.46;95.96;100645.34;5076662;28;20101;-56
2022/09/14 03:36:12;;;;;;;10.52;3.60;;;;;;;14.37;97.13;100634.78;5069809;28;20058;-58
2022/09/14 03:38:41;;;;;;;13.90;3.40;;;;;;;14.40;96.03;100630.94;5080267;28;20036;-56
2022/09/14 03:41:10;;;;;;;8.52;3.40;;;;;;;14.33;96.36;100630.06;5063901;28;20079;-56
2022/09/14 03:43:36;;;;;;;11.82;3.40;;;;;;;14.38;96.84;100633.81;5065389;28;20466;-56
2022/09/14 03:46:14;;;;;;;9.57;3.63;;;;;;;14.44;97.68;100628.69;5073672;28;20032;-57
2022/09/14 03:48:40;;;;;;;8.55;3.63;;;;;;;14.34;95.11;100627.19;5078971;28;20472;-58
2022/09/14 03:51:07;;;;;;;9.25;3.22;;;;;;;14.33;96.37;100612.22;5068762;28;20074;-59
2022/09/14 03:53:33;;;;;;;11.80;3.58;;;;;;;14.34;98.26;100627.19;5070778;28;20036;-56
2022/09/14 03:55:59;;;;;;;10.85;3.40;;;;;;;14.31;96.21;100621.41;5084258;28;20030;-58
2022/09/14 03:58:25;;;;;;;11.07;3.58;;;;;;;14.29;96.56;100624.28;5076515;28;20039;-57
2022/09/14 04:00:51;;;;;;;10.55;3.67;;;;;;;14.24;96.34;100616.84;5066282;28;20032;-57
2022/09/14 04:03:17;;;;;;;9.20;3.50;;;;;;;14.14;96.83;100611.00;5071133;28;20066;-56
2022/09/14 04:05:44;;;;;;;10.70;3.35;;;;;;;14.18;96.81;100611.44;5066732;28;20501;-56
2022/09/14 04:08:10;;;;;;;11.18;3.50;;;;;;;14.15;96.60;100609.19;5063492;28;20471;-57
2022/09/14 04:10:38;;;;;;;7.13;3.13;;;;;;;14.13;96.97;100610.16;5074044;28;20578;-56
2022/09/14 04:13:03;;;;;;;11.40;3.50;;;;;;;14.06;96.15;100603.97;5068034;28;20371;-58
2022/09/14 04:15:28;;;;;;;10.07;3.40;;;;;;;14.01;97.16;100617.03;5083505;28;20039;-56
2022/09/14 04:17:53;;;;;;;11.63;3.30;;;;;;;13.99;96.51;100611.06;5067272;28;20138;-57
2022/09/14 04:20:19;;;;;;;8.27;3.15;;;;;;;14.06;98.41;100606.63;5074948;28;20039;-57
2022/09/14 04:22:46;;;;;;;11.02;3.25;;;;;;;14.10;98.89;100620.41;5071204;28;20067;-56
2022/09/14 04:25:11;;;;;;;7.15;3.20;;;;;;;13.97;96.66;100610.44;5065096;28;20578;-56
2022/09/14 04:27:37;;;;;;;9.52;3.45;;;;;;;14.09;98.34;100605.41;5064943;28;20055;-56
2022/09/14 04:30:04;;;;;;;8.27;3.45;;;;;;;14.09;97.17;100598.25;5073712;28;20089;-57
2022/09/14 04:32:30;;;;;;;11.55;3.60;;;;;;;14.15;97.23;100603.84;5077469;28;20360;-56
2022/09/14 04:34:55;;;;;;;15.40;4.68;;;;;;;14.23;98.59;100598.38;5076014;28;20088;-58
2022/09/14 04:37:21;;;;;;;11.25;3.67;;;;;;;14.26;97.67;100597.97;5071555;28;20040;-56
2022/09/14 04:39:46;;;;;;;13.23;3.70;;;;;;;14.27;97.38;100594.31;5075744;28;20495;-55
2022/09/14 04:42:11;;;;;;;9.32;3.50;;;;;;;14.25;97.30;100591.84;5070332;28;20482;-57
2022/09/14 04:44:36;;;;;;;9.73;3.10;;;;;;;14.27;97.19;100591.66;5072724;28;20057;-56
2022/09/14 04:47:02;;;;;;;9.55;3.35;;;;;;;14.28;97.15;100587.97;5072949;28;20028;-57
2022/09/14 04:49:27;;;;;;;8.80;3.00;;;;;;;14.30;97.54;100588.56;5066822;28;20066;-58
2022/09/14 04:51:53;;;;;;;7.90;2.97;;;;;;;14.18;95.91;100585.63;5083083;28;20036;-57
2022/09/14 04:54:19;;;;;;;6.93;3.00;;;;;;;14.23;95.80;100593.03;5082390;28;20127;-58
2022/09/14 04:56:45;;;;;;;7.25;3.10;;;;;;;14.18;96.11;100590.13;5083273;28;20028;-58
2022/09/14 04:59:10;;;;;;;9.43;3.20;;;;;;;14.17;95.90;100577.81;5076042;28;20525;-55
2022/09/14 05:01:42;;;;;;;13.65;3.70;;;;;;;14.17;96.98;100577.81;5082758;28;20028;-59
2022/09/14 05:04:10;;;;;;;8.63;3.22;;;;;;;14.25;97.80;100569.66;5070051;28;20031;-58
2022/09/14 05:06:37;;;;;;;11.43;3.15;;;;;;;14.13;95.57;100567.50;5072613;28;20112;-57
2022/09/14 05:09:05;;;;;;;12.85;3.15;;;;;;;14.16;96.13;100568.16;5071902;28;20070;-57
2022/09/14 05:11:33;;;;;;;11.65;3.25;;;;;;;14.13;96.43;100556.84;5067154;28;20046;-56
2022/09/14 05:14:00;;;;;;;9.65;3.35;;;;;;;14.16;95.43;100560.16;5075963;28;20120;-57
2022/09/14 05:16:30;;;;;;;10.35;3.50;;;;;;;14.12;96.37;100549.88;5069045;28;20115;-58
2022/09/14 05:19:04;;;;;;;7.55;3.00;;;;;;;14.18;96.04;100561.63;5069643;28;20783;-59
2022/09/14 05:21:31;;;;;;;8.20;3.10;;;;;;;14.17;96.53;100564.47;5069495;28;20118;-56
2022/09/14 05:24:03;;;;;;;8.75;2.80;;;;;;;14.21;97.54;100568.41;5069053;28;20039;-58
2022/09/14 05:26:30;;;;;;;9.10;3.10;;;;;;;14.13;95.86;100572.84;5074072;28;20031;-58
2022/09/14 05:28:58;;;;;;;8.85;3.00;;;;;;;14.16;96.11;100576.97;5058552;28;20063;-60
2022/09/14 05:31:25;;;;;;;9.98;3.30;;;;;;;14.12;97.33;100575.72;5075032;28;20384;-57
2022/09/14 05:33:52;;;;;;;11.60;3.35;;;;;;;14.08;98.44;100575.28;5067905;28;20036;-57
2022/09/14 05:36:18;;;;;;;8.85;3.13;;;;;;;14.07;97.52;100573.59;5070873;28;20077;-58
2022/09/14 05:38:43;;;;;;;9.13;3.63;;;;;;;14.04;97.62;100584.66;5066752;28;20028;-58
2022/09/14 05:41:10;;;;;;;10.77;3.50;;;;;;;14.04;97.54;100570.50;5075751;28;20057;-56
2022/09/14 05:43:36;;;;;;;8.20;3.63;;;;;;;14.03;98.75;100569.69;5067846;28;20055;-57
2022/09/14 05:46:05;;;;;;;7.80;3.35;;;;;;;14.02;98.77;100575.22;5072224;28;20144;-59
2022/09/14 05:48:32;;;;;;;7.90;3.45;;;;;;;14.03;99.45;100583.03;5075467;28;20068;-57
2022/09/14 05:51:02;;;;;;;8.77;3.40;;;;;;;14.11;99.39;100580.22;5069801;28;20039;-58
2022/09/14 05:53:28;;;;;;;10.18;3.47;;;;;;;14.13;99.28;100583.50;5071433;28;20043;-59
2022/09/14 05:56:10;;;;;;;9.48;3.70;;;;;;;14.15;99.04;100574.50;5073012;28;20025;-59
2022/09/14 05:58:38;;;;;;;9.75;3.70;;;;;;;14.10;98.93;100577.72;5070268;28;20027;-58
2022/09/14 06:01:14;;;;;;;9.80;3.45;;;;;;;14.15;98.82;100582.50;5068783;28;20032;-58
2022/09/14 06:03:41;;;;;;;9.13;3.67;;;;;;;14.09;98.75;100582.25;5063142;28;20037;-57
2022/09/14 06:06:08;;;;;;;9.60;3.78;;;;;;;14.05;99.74;100586.31;5072938;28;20035;-56
2022/09/14 06:08:33;;;;;;;10.43;4.00;;;;;;;14.04;99.96;100595.34;5071950;28;20440;-56
2022/09/14 06:11:08;;;;;;;9.93;3.75;;;;;;;14.11;99.93;100590.88;5067456;28;20113;-58
2022/09/14 06:13:34;;;;;;;8.57;4.00;;;;;;;14.12;99.83;100597.06;5068868;28;20110;-56
2022/09/14 06:16:08;;;;;;;10.90;3.85;;;;;;;14.09;100.00;100598.25;5071603;28;20024;-56
2022/09/14 06:18:35;;;;;;;7.00;3.70;;;;;;;14.09;99.71;100600.94;5070639;28;20029;-57
2022/09/14 06:21:00;;;;;;;10.77;4.25;;;;;;;14.01;99.65;100593.03;5068447;28;20044;-57
2022/09/14 06:23:27;;;;;;;10.45;4.05;;;;;;;14.08;100.00;100603.78;5070443;28;20024;-57
2022/09/14 06:25:53;;;;;;;8.90;4.07;;;;;;;13.98;99.71;100606.75;5077671;28;20120;-57
2022/09/14 06:28:19;;;;;;;10.10;4.10;;;;;;;14.01;99.64;100606.38;5074240;28;20052;-56
2022/09/14 06:30:44;;;;;;;7.68;3.58;;;;;;;13.98;100.00;100601.44;5070812;28;20123;-58
2022/09/14 06:33:10;;;;;;;12.63;4.13;;;;;;;13.90;99.72;100596.19;5068553;28;20477;-57
2022/09/14 06:35:35;;;;;;;10.13;4.10;;;;;;;13.87;100.00;100602.75;5076855;28;20036;-56
2022/09/14 06:38:00;;;;;;;9.70;4.22;;;;;;;13.82;100.00;100597.97;5065338;28;20032;-57
2022/09/14 06:40:26;;;;;;;10.15;4.03;;;;;;;13.91;100.00;100595.22;5064906;28;20043;-56
2022/09/14 06:42:52;;;;;;;8.27;4.15;;;;;;;13.91;100.00;100589.88;5065986;28;20036;-59
2022/09/14 06:45:17;;;;;;;10.10;4.03;;;;;;;13.93;100.00;100580.69;5070623;28;20047;-56
2022/09/14 06:47:42;;;;;;;8.88;3.88;;;;;;;13.92;100.00;100586.19;5067066;28;20542;-58
2022/09/14 06:50:08;;;;;;;10.23;3.88;;;;;;;13.85;100.00;100586.94;5072601;28;20064;-59
2022/09/14 06:52:35;;;;;;;8.52;4.00;;;;;;;13.88;100.00;100583.09;5067863;28;20063;-57
2022/09/14 06:55:00;;;;;;;8.25;3.95;;;;;;;13.85;100.00;100576.28;5067691;28;20153;-56
2022/09/14 06:57:25;;;;;;;8.25;3.33;;;;;;;13.75;100.00;100575.78;5062103;28;20549;-58
2022/09/14 06:59:51;;;;;;;8.75;3.67;;;;;;;13.72;100.00;100570.84;5064843;28;20537;-58
2022/09/14 07:02:16;;;;;;;12.93;4.63;;;;;;;13.79;100.00;100566.38;5067632;28;20035;-59
2022/09/14 07:04:42;;;;;;;9.60;3.95;;;;;;;13.79;100.00;100566.38;5061849;28;20476;-59
2022/09/14 07:07:07;;;;;;;7.90;4.00;;;;;;;13.86;100.00;100563.78;5063594;28;20316;-59
2022/09/14 07:09:32;;;;;;;8.00;3.53;;;;;;;13.76;100.00;100564.09;5068698;28;20440;-60
2022/09/14 07:11:57;;;;;;;9.00;3.70;;;;;;;13.80;100.00;100568.03;5069836;28;20032;-56
2022/09/14 07:14:23;;;;;;;10.60;3.78;;;;;;;13.82;100.00;100568.66;5074684;28;20028;-57
2022/09/14 07:16:48;;;;;;;9.98;4.03;;;;;;;13.85;100.00;100560.31;5068198;28;20574;-57
2022/09/14 07:19:14;;;;;;;10.15;3.90;;;;;;;13.80;100.00;100559.19;5082802;28;20028;-57
2022/09/14 07:21:40;;;;;;;8.80;3.72;;;;;;;13.79;100.00;100558.41;5071909;28;20035;-58
2022/09/14 07:24:05;;;;;;;8.45;3.78;;;;;;;13.80;100.00;100560.03;5068612;28;20083;-56
2022/09/14 07:26:38;;;;;;;9.98;3.88;;;;;;;13.82;100.00;100551.88;5070982;28;20028;-56
2022/09/14 07:29:05;;;;;;;;;;;;;;;13.96;100.00;100563.47;5061209;28;20118;-57
2022/09/14 07:31:32;;;;;;;11.20;4.28;;;;;;;13.76;100.00;100556.09;5065963;28;19963;-56
2022/09/14 07:34:00;;;;;;;8.77;3.90;;;;;;;13.81;100.00;100559.03;5061847;28;20024;-57
2022/09/14 07:36:27;;;;;;;8.40;3.95;;;;;;;13.87;100.00;100559.28;5079110;28;20081;-59
2022/09/14 07:38:52;;;;;;;8.75;4.10;;;;;;;13.84;100.00;100561.31;5066453;28;20036;-57
2022/09/14 07:41:22;;;;;;;8.20;3.78;;;;;;;13.79;100.00;100563.72;5073106;28;20537;-57
2022/09/14 07:43:49;;;;;;;9.20;3.90;;;;;;;13.77;100.00;100563.06;5066102;28;20187;-56
2022/09/14 07:46:14;;;;;;;7.40;3.97;;;;;;;13.78;100.00;100559.41;5068693;28;20024;-57
2022/09/14 07:48:39;;;;;;;11.52;4.70;;;;;;;13.87;100.00;100554.78;5067997;28;20039;-57
2022/09/14 07:51:07;;;;;;;9.40;4.10;;;;;;;13.87;100.00;100551.28;5074739;28;20047;-59
2022/09/14 07:53:44;;;;;;;7.65;4.13;;;;;;;13.93;100.00;100553.19;5067775;28;20104;-58
2022/09/14 07:56:11;;;;;;;8.02;4.40;;;;;;;13.93;100.00;100555.84;5066672;28;20085;-56
2022/09/14 07:58:36;;;;;;;7.28;4.30;;;;;;;13.85;100.00;100549.63;5070489;28;20032;-59
2022/09/14 08:01:06;;;;;;;7.45;4.40;;;;;;;13.87;100.00;100549.44;5067251;28;20044;-56
2022/09/14 08:03:31;;;;;;;8.48;4.50;;;;;;;13.91;100.00;100557.91;5070349;28;20028;-56
2022/09/14 08:06:02;;;;;;;7.75;4.55;;;;;;;13.88;100.00;100552.94;5074238;28;20052;-57
2022/09/14 08:08:32;;;;;;;8.60;4.60;;;;;;;13.92;100.00;100559.53;5066155;28;20040;-59
2022/09/14 08:11:19;;;;;;;9.85;4.97;;;;;;;13.94;100.00;100546.84;5068040;28;20043;-56
2022/09/14 08:13:50;;;;;;;10.50;4.70;;;;;;;13.91;100.00;100552.56;5078303;28;20028;-58
2022/09/14 08:16:17;;;;;;;7.35;4.43;;;;;;;13.90;100.00;100549.06;5067626;28;20033;-58
2022/09/14 08:18:43;;;;;;;11.43;4.45;;;;;;;13.91;100.00;100549.91;5069656;28;20040;-60
2022/09/14 08:21:14;;;;;;;11.82;4.88;;;;;;;13.89;100.00;100549.25;5069884;28;20028;-58
2022/09/14 08:23:41;;;;;;;9.30;4.68;;;;;;;13.92;100.00;100546.22;5074901;28;20085;-57
2022/09/14 08:26:14;;;;;;;10.93;4.63;;;;;;;13.95;100.00;100553.81;5078033;28;20040;-60
2022/09/14 08:28:40;;;;;;;14.13;5.68;;;;;;;14.02;100.00;100552.06;5079424;28;20491;-57
2022/09/14 08:31:09;;;;;;;8.98;5.30;;;;;;;13.95;100.00;100553.81;5078413;28;20024;-60
2022/09/14 08:33:38;;;;;;;8.80;5.63;;;;;;;14.04;100.00;100549.16;5071886;28;22376;-58
2022/09/14 08:36:05;;;;;;;12.35;6.00;;;;;;;14.12;100.00;100547.19;5087599;28;20126;-57
2022/09/14 08:38:30;;;;;;;13.23;6.38;;;;;;;14.17;100.00;100556.47;5078567;28;20043;-60
2022/09/14 08:40:57;;;;;;;9.60;5.75;;;;;;;14.21;100.00;100560.41;5067874;28;20024;-57
2022/09/14 08:43:26;;;;;;;11.68;6.25;;;;;;;14.18;100.00;100553.63;5070526;28;20093;-57
2022/09/14 08:46:00;;;;;;;11.73;6.00;;;;;;;14.11;100.00;100556.22;5070996;28;20024;-57
2022/09/14 08:48:32;;;;;;;11.93;6.97;;;;;;;14.16;100.00;100560.16;5071344;28;20108;-57
2022/09/14 08:50:57;;;;;;;10.30;6.97;;;;;;;14.15;100.00;100563.84;5069639;28;20037;-57
2022/09/14 08:53:24;;;;;;;13.50;7.28;;;;;;;14.13;100.00;100567.50;5064569;28;20698;-57
2022/09/14 08:55:59;;;;;;;13.50;7.43;;;;;;;14.15;100.00;100569.19;5064360;28;20029;-56
2022/09/14 08:58:30;;;;;;;15.13;7.88;;;;;;;14.20;100.00;100566.75;5071546;28;20040;-56
2022/09/14 09:01:16;;;;;;;12.57;8.18;;;;;;;14.23;100.00;100561.03;5074871;28;20533;-57
2022/09/14 09:04:05;;;;;;;14.35;8.70;;;;;;;14.28;100.00;100558.63;5065733;28;20163;-58
2022/09/14 09:06:37;;;;;;;15.05;8.70;;;;;;;14.33;100.00;100556.19;5062744;28;20041;-57
2022/09/14 09:09:26;;;;;;;13.73;8.55;;;;;;;14.37;100.00;100559.31;5066380;28;20040;-58
2022/09/14 09:11:54;;;;;;;16.17;8.90;;;;;;;14.35;100.00;100564.81;5065457;28;20372;-56
2022/09/14 09:14:44;;;;;;;11.25;8.43;;;;;;;14.33;100.00;100561.53;5062782;28;20598;-59
2022/09/14 09:17:19;;;;;;;14.30;8.15;;;;;;;14.29;100.00;100554.94;5071488;28;20028;-59
2022/09/14 09:20:18;;;;;;;15.02;8.77;;;;;;;14.37;100.00;100556.63;5078410;28;20102;-57
2022/09/14 09:23:09;;;;;;;14.40;8.88;;;;;;;14.33;100.00;100550.88;5064865;28;20064;-55
2022/09/14 09:25:57;;;;;;;14.52;8.65;;;;;;;14.41;100.00;100551.75;5066292;28;20476;-57
2022/09/14 09:28:24;;;;;;;13.15;8.88;;;;;;;14.33;100.00;100550.88;5064249;28;20021;-56
2022/09/14 09:30:52;;;;;;;13.70;8.52;;;;;;;14.32;100.00;100551.88;5072472;28;20035;-56
2022/09/14 09:33:22;;;;;;;16.83;8.88;;;;;;;14.28;100.00;100547.94;5072000;28;20028;-57
2022/09/14 09:35:49;;;;;;;15.02;9.00;;;;;;;14.35;100.00;100548.81;5073208;28;20060;-56
2022/09/14 09:38:20;;;;;;;16.67;9.32;;;;;;;14.42;100.00;100542.72;5047936;28;20498;-56
2022/09/14 09:40:51;;;;;;;13.27;8.88;;;;;;;14.36;100.00;100545.13;5082576;28;20039;-59
2022/09/14 09:43:19;;;;;;;13.73;8.35;;;;;;;14.36;100.00;100539.78;5073168;28;20090;-56
2022/09/14 09:45:53;;;;;;;15.80;9.50;;;;;;;14.42;100.00;100546.22;5065162;28;20024;-56
2022/09/14 09:48:23;;;;;;;13.15;9.15;;;;;;;14.40;100.00;100556.22;5073646;28;20792;-56
2022/09/14 09:51:09;;;;;;;12.95;9.20;;;;;;;14.52;100.00;100561.88;5079608;28;20762;-56
2022/09/14 09:53:58;;;;;;;15.23;9.45;;;;;;;14.40;100.00;100561.56;5071158;28;20356;-56
2022/09/14 09:56:32;;;;;;;16.85;9.10;;;;;;;14.48;100.00;100553.44;5029673;28;20445;-59
2022/09/14 09:58:57;;;;;;;18.05;9.90;;;;;;;14.45;100.00;100555.69;5061736;28;20033;-57
2022/09/14 10:01:31;;;;;;;13.35;9.60;;;;;;;14.43;100.00;100552.34;5070630;28;20066;-56
2022/09/14 10:04:29;;;;;;;15.57;9.25;;;;;;;14.52;100.00;100549.34;5078007;28;20050;-57
2022/09/14 10:06:56;;;;;;;15.32;9.30;;;;;;;14.45;100.00;100555.69;5007545;28;20186;-56
2022/09/14 10:09:27;;;;;;;14.23;9.60;;;;;;;14.47;100.00;100546.47;5061237;28;20056;-56
2022/09/14 10:12:01;;;;;;;15.32;9.55;;;;;;;14.51;100.00;100558.38;5067531;28;20029;-56
2022/09/14 10:14:32;;;;;;;17.13;10.60;;;;;;;14.59;100.00;100549.41;5061445;28;20051;-56
2022/09/14 10:17:23;;;;;;;17.55;10.57;;;;;;;14.70;100.00;100558.69;5072459;28;20663;-56
2022/09/14 10:19:53;;;;;;;15.35;9.57;;;;;;;14.69;100.00;100549.03;5065721;28;20051;-58
2022/09/14 10:22:29;;;;;;;14.65;9.55;;;;;;;14.74;100.00;100551.13;5061572;28;20089;-56
2022/09/14 10:25:02;;;;;;;14.85;9.30;;;;;;;14.81;100.00;100545.84;5060973;28;20036;-57
2022/09/14 10:27:51;;;;;;;14.30;8.68;;;;;;;14.73;100.00;100549.47;5061244;28;20055;-56
2022/09/14 10:30:20;;;;;;;14.40;8.80;;;;;;;14.76;100.00;100551.78;5079450;28;20063;-56
2022/09/14 10:33:08;;;;;;;13.07;8.50;;;;;;;14.74;100.00;100548.44;5061458;28;20085;-57
2022/09/14 10:36:07;;;;;;;14.38;9.07;;;;;;;14.74;100.00;100556.44;5063898;28;20533;-58
2022/09/14 10:38:53;;;;;;;18.17;8.68;;;;;;;14.65;100.00;100553.94;5078693;28;20663;-55
2022/09/14 10:41:38;;;;;;;14.48;8.57;;;;;;;14.55;100.00;100552.66;5080926;28;20032;-59
2022/09/14 10:44:44;;;;;;;14.75;8.80;;;;;;;14.61;100.00;100542.00;5073551;28;20503;-57
2022/09/14 10:47:31;;;;;;;12.65;8.73;;;;;;;14.49;100.00;100549.75;5067310;28;20111;-56
2022/09/14 10:50:25;;;;;;;17.25;9.77;;;;;;;14.54;100.00;100551.81;5073952;28;20581;-58
2022/09/14 10:53:15;;;;;;;13.88;9.73;;;;;;;14.55;100.00;100542.78;5071391;28;20265;-59
2022/09/14 10:55:52;;;;;;;16.48;9.90;;;;;;;14.53;100.00;100544.84;5065023;28;20032;-59
2022/09/14 10:58:44;;;;;;;12.80;9.45;;;;;;;14.50;100.00;100537.22;5062719;28;20025;-59
2022/09/14 11:01:33;;;;;;;13.93;10.20;;;;;;;14.59;100.00;100544.06;5066704;28;20036;-56
2022/09/14 11:04:23;;;;;;;14.23;9.93;;;;;;;14.62;100.00;100542.84;5066369;28;20036;-55
2022/09/14 11:06:57;;;;;;;17.75;10.02;;;;;;;14.72;100.00;100538.00;5060279;28;20029;-57
2022/09/14 11:10:06;;;;;;;12.95;9.43;;;;;;;14.76;100.00;100544.59;5064091;28;20040;-56
2022/09/14 11:12:48;;;;;;;16.15;8.27;;;;;;;14.71;100.00;100541.66;5062799;28;20035;-57
2022/09/14 11:15:30;;;;;;;10.82;6.10;;;;;;;14.66;99.99;100534.25;5071258;28;20122;-57
2022/09/14 11:18:05;;;;;;;12.48;7.10;;;;;;;14.66;100.00;100534.25;5063085;28;20032;-57
2022/09/14 11:20:49;;;;;;;11.95;6.70;;;;;;;14.69;100.00;100522.34;5060893;28;20487;-57
2022/09/14 11:23:27;;;;;;;11.00;6.63;;;;;;;14.64;100.00;100530.97;5060911;28;20032;-57
2022/09/14 11:26:11;;;;;;;11.77;7.15;;;;;;;14.57;100.00;100522.09;5069852;28;20060;-56
2022/09/14 11:28:45;;;;;;;13.52;7.47;;;;;;;14.55;100.00;100526.78;5075594;28;20486;-59
2022/09/14 11:31:23;;;;;;;11.20;7.53;;;;;;;14.55;100.00;100532.13;5063173;28;20400;-57
2022/09/14 11:33:49;;;;;;;9.45;7.03;;;;;;;14.54;100.00;100530.47;5074414;28;20122;-60
2022/09/14 11:36:22;;;;;;;11.50;6.40;;;;;;;14.55;100.00;100532.13;5069997;28;20527;-56